createdAt,value
2023-05-25T00:00:29.099Z,19.70
2023-05-25T00:02:56.317Z,19.70
2023-05-25T00:05:28.041Z,19.70
2023-05-25T00:07:55.418Z,19.70
2023-05-25T00:10:24.096Z,19.70
2023-05-25T00:12:51.744Z,19.70
2023-05-25T00:15:18.779Z,19.70
2023-05-25T00:17:49.012Z,19.60
2023-05-25T00:20:16.372Z,19.70
2023-05-25T00:22:47.275Z,19.70
2023-05-25T00:25:14.094Z,19.70
2023-05-25T00:27:40.903Z,19.70
2023-05-25T00:30:08.313Z,19.60
2023-05-25T00:32:35.504Z,19.50
2023-05-25T00:35:02.423Z,19.50
2023-05-25T00:37:29.361Z,19.50
2023-05-25T00:39:56.281Z,19.50
2023-05-25T00:42:23.994Z,19.50
2023-05-25T00:44:50.920Z,19.40
2023-05-25T00:47:17.878Z,19.30
2023-05-25T00:49:44.901Z,19.20
2023-05-25T00:52:15.595Z,19.30
2023-05-25T00:54:43.206Z,19.30
2023-05-25T00:57:13.022Z,19.20
2023-05-25T00:59:46.767Z,19.20
2023-05-25T01:02:17.069Z,19.10
2023-05-25T01:04:47.626Z,18.90
2023-05-25T01:07:25.416Z,19.00
2023-05-25T01:09:58.158Z,18.90
2023-05-25T01:12:28.940Z,18.80
2023-05-25T01:14:57.043Z,18.70
2023-05-25T01:17:24.009Z,18.60
2023-05-25T01:20:09.014Z,18.70
2023-05-25T01:22:51.488Z,18.60
2023-05-25T01:25:23.595Z,18.50
2023-05-25T01:28:15.485Z,18.50
2023-05-25T01:30:44.905Z,18.40
2023-05-25T01:33:12.239Z,18.40
2023-05-25T01:35:41.915Z,18.50
2023-05-25T01:38:09.988Z,18.50
2023-05-25T01:40:36.900Z,18.40
2023-05-25T01:43:03.739Z,18.50
2023-05-25T01:45:33.029Z,18.50
2023-05-25T01:48:14.920Z,18.40
2023-05-25T01:50:52.350Z,18.30
2023-05-25T01:53:35.937Z,18.30
2023-05-25T01:56:08.785Z,18.40
2023-05-25T01:58:44.434Z,18.40
2023-05-25T02:01:14.049Z,18.50
2023-05-25T02:03:42.237Z,18.40
2023-05-25T02:06:09.143Z,18.50
2023-05-25T02:08:36.121Z,18.60
2023-05-25T02:11:03.540Z,18.60
2023-05-25T02:13:30.802Z,18.60
2023-05-25T02:15:57.846Z,18.60
2023-05-25T02:18:24.720Z,18.70
2023-05-25T02:20:51.844Z,18.70
2023-05-25T02:23:19.086Z,18.70
2023-05-25T02:25:46.502Z,18.70
2023-05-25T02:28:14.408Z,18.70
2023-05-25T02:30:41.344Z,18.70
2023-05-25T02:33:08.227Z,18.80
2023-05-25T02:35:35.868Z,18.90
2023-05-25T02:38:02.711Z,18.90
2023-05-25T02:40:29.639Z,18.90
2023-05-25T02:42:56.474Z,19.00
2023-05-25T02:45:23.310Z,19.00
2023-05-25T02:47:50.160Z,19.10
2023-05-25T02:50:17.046Z,19.20
2023-05-25T02:52:43.863Z,19.80
2023-05-25T02:55:13.247Z,20.60
2023-05-25T02:57:40.170Z,21.40
2023-05-25T03:00:08.727Z,22.10
2023-05-25T03:02:35.539Z,22.40
2023-05-25T03:05:04.416Z,22.70
2023-05-25T03:07:31.727Z,22.90
2023-05-25T03:09:59.574Z,23.10
2023-05-25T03:12:26.485Z,23.10
2023-05-25T03:14:53.303Z,23.20
2023-05-25T03:17:20.273Z,23.50
2023-05-25T03:19:47.189Z,23.90
2023-05-25T03:22:14.039Z,24.40
2023-05-25T03:24:41.890Z,24.90
2023-05-25T03:27:09.110Z,25.30
2023-05-25T03:29:36.003Z,25.70
2023-05-25T03:32:03.126Z,26.00
2023-05-25T03:34:30.277Z,26.30
2023-05-25T03:36:57.228Z,26.40
2023-05-25T03:39:24.172Z,26.40
2023-05-25T03:41:51.411Z,26.50
2023-05-25T03:44:18.424Z,26.80
2023-05-25T03:46:45.512Z,26.80
2023-05-25T03:49:14.225Z,27.10
2023-05-25T03:51:41.952Z,27.30
2023-05-25T03:54:08.893Z,27.30
2023-05-25T03:56:35.911Z,27.20
2023-05-25T03:59:02.810Z,26.90
2023-05-25T04:01:30.262Z,26.90
2023-05-25T04:03:57.488Z,27.00
2023-05-25T04:06:25.679Z,27.20
2023-05-25T04:08:53.058Z,27.70
2023-05-25T04:11:21.176Z,28.10
2023-05-25T04:13:48.115Z,28.40
2023-05-25T04:16:15.151Z,28.70
2023-05-25T04:18:42.149Z,28.90
2023-05-25T04:21:09.048Z,28.70
2023-05-25T04:23:36.113Z,28.40
2023-05-25T04:26:03.924Z,28.50
2023-05-25T04:28:30.868Z,28.70
2023-05-25T04:30:57.869Z,28.60
2023-05-25T04:33:25.001Z,28.60
2023-05-25T04:35:51.907Z,28.40
2023-05-25T04:38:18.791Z,28.20
2023-05-25T04:40:48.876Z,28.00
2023-05-25T04:43:18.361Z,27.70
2023-05-25T04:45:46.017Z,27.90
2023-05-25T04:48:13.586Z,28.10
2023-05-25T04:50:40.429Z,28.00
2023-05-25T04:53:07.455Z,28.00
2023-05-25T04:55:34.427Z,27.90
2023-05-25T04:58:01.326Z,28.00
2023-05-25T05:00:28.228Z,27.90
2023-05-25T05:03:01.562Z,28.10
2023-05-25T05:05:28.548Z,28.20
2023-05-25T05:07:55.784Z,28.40
2023-05-25T05:10:22.652Z,28.40
2023-05-25T05:12:49.496Z,28.80
2023-05-25T05:15:16.482Z,28.80
2023-05-25T05:17:43.383Z,29.00
2023-05-25T05:20:10.672Z,29.00
2023-05-25T05:22:38.483Z,29.30
2023-05-25T05:25:05.712Z,29.30
2023-05-25T05:27:32.817Z,29.00
2023-05-25T05:29:59.799Z,29.10
2023-05-25T05:32:26.867Z,29.40
2023-05-25T05:34:53.774Z,29.70
2023-05-25T05:37:20.882Z,30.10
2023-05-25T05:39:47.793Z,30.20
2023-05-25T05:42:14.636Z,30.60
2023-05-25T05:44:41.481Z,30.60
2023-05-25T05:47:08.344Z,30.50
2023-05-25T05:49:35.169Z,30.60
2023-05-25T05:52:03.967Z,30.40
2023-05-25T05:54:30.812Z,30.40
2023-05-25T05:56:57.674Z,30.20
2023-05-25T05:59:24.495Z,30.30
2023-05-25T06:01:51.388Z,30.40
2023-05-25T06:04:19.551Z,30.40
2023-05-25T06:06:46.441Z,30.40
2023-05-25T06:09:13.898Z,30.30
2023-05-25T06:11:40.871Z,30.50
2023-05-25T06:14:07.738Z,30.70
2023-05-25T06:16:34.679Z,30.70
2023-05-25T06:19:01.620Z,30.90
2023-05-25T06:21:28.682Z,31.00
2023-05-25T06:23:57.802Z,31.20
2023-05-25T06:26:25.040Z,31.20
2023-05-25T06:28:52.442Z,30.70
2023-05-25T06:31:19.338Z,30.70
2023-05-25T06:33:46.204Z,30.60
2023-05-25T06:36:15.680Z,30.80
2023-05-25T06:38:42.828Z,30.70
2023-05-25T06:41:12.857Z,30.60
2023-05-25T06:43:39.794Z,30.90
2023-05-25T06:46:06.805Z,31.00
2023-05-25T06:48:33.712Z,31.20
2023-05-25T06:51:00.711Z,31.10
2023-05-25T06:53:27.642Z,30.80
2023-05-25T06:55:54.482Z,30.80
2023-05-25T06:58:21.343Z,31.00
2023-05-25T07:00:48.231Z,30.90
2023-05-25T07:03:15.171Z,31.30
2023-05-25T07:05:42.467Z,31.40
2023-05-25T07:08:09.591Z,31.80
2023-05-25T07:10:36.432Z,32.20
2023-05-25T07:13:03.331Z,32.30
2023-05-25T07:15:30.383Z,32.70
2023-05-25T07:17:57.473Z,32.40
2023-05-25T07:20:24.613Z,32.20
2023-05-25T07:22:53.367Z,32.40
2023-05-25T07:25:20.423Z,32.40
2023-05-25T07:27:50.510Z,32.50
2023-05-25T07:30:17.453Z,32.40
2023-05-25T07:32:44.440Z,32.50
2023-05-25T07:35:11.289Z,32.60
2023-05-25T07:37:38.146Z,32.70
2023-05-25T07:40:06.226Z,32.60
2023-05-25T07:42:34.538Z,32.30
2023-05-25T07:45:02.340Z,31.40
2023-05-25T07:47:29.536Z,31.00
2023-05-25T07:49:56.358Z,31.10
2023-05-25T07:52:23.209Z,31.30
2023-05-25T07:54:50.146Z,31.60
2023-05-25T07:57:16.989Z,31.50
2023-05-25T07:59:45.011Z,31.50
2023-05-25T08:02:11.942Z,31.10
2023-05-25T08:04:38.876Z,31.10
2023-05-25T08:07:05.803Z,31.40
2023-05-25T08:09:32.674Z,31.30
2023-05-25T08:12:18.498Z,30.80
2023-05-25T08:14:47.097Z,30.80
2023-05-25T08:17:14.038Z,30.50
2023-05-25T08:19:40.993Z,30.40
2023-05-25T08:22:07.835Z,30.20
2023-05-25T08:24:34.711Z,30.00
2023-05-25T08:27:02.070Z,30.10
2023-05-25T08:29:28.920Z,30.00
2023-05-25T08:31:55.728Z,30.00
2023-05-25T08:34:22.929Z,30.30
2023-05-25T08:36:49.882Z,30.80
2023-05-25T08:39:16.854Z,31.00
2023-05-25T08:41:45.072Z,31.00
2023-05-25T08:44:14.312Z,31.00
2023-05-25T08:46:41.743Z,31.10
2023-05-25T08:49:14.025Z,30.60
2023-05-25T08:51:50.850Z,30.00
2023-05-25T08:54:24.763Z,29.80
2023-05-25T08:56:55.363Z,30.40
2023-05-25T08:59:50.684Z,30.30
2023-05-25T09:03:01.248Z,29.80
2023-05-25T09:05:28.314Z,29.30
2023-05-25T09:07:56.478Z,29.30
2023-05-25T09:10:24.816Z,28.80
2023-05-25T09:12:52.449Z,28.80
2023-05-25T09:15:19.307Z,29.20
2023-05-25T09:17:46.263Z,29.20
2023-05-25T09:20:16.660Z,29.20
2023-05-25T09:22:44.481Z,29.10
2023-05-25T09:25:12.989Z,29.00
2023-05-25T09:27:39.946Z,29.20
2023-05-25T09:30:07.792Z,29.10
2023-05-25T09:32:35.527Z,29.20
2023-05-25T09:35:13.318Z,29.10
2023-05-25T09:37:44.172Z,29.20
2023-05-25T09:40:11.549Z,29.00
2023-05-25T09:42:39.748Z,28.80
2023-05-25T09:45:07.217Z,28.60
2023-05-25T09:47:37.156Z,28.50
2023-05-25T09:50:04.376Z,28.50
2023-05-25T09:52:31.694Z,28.50
2023-05-25T09:54:58.676Z,28.50
2023-05-25T09:57:28.092Z,28.50
2023-05-25T09:59:54.944Z,28.60
2023-05-25T10:02:22.278Z,28.70
2023-05-25T10:04:49.239Z,28.80
2023-05-25T10:07:16.438Z,28.70
2023-05-25T10:09:46.471Z,28.40
2023-05-25T10:12:18.951Z,28.50
2023-05-25T10:14:47.216Z,28.60
2023-05-25T10:17:17.014Z,28.90
2023-05-25T10:20:01.221Z,28.90
2023-05-25T10:22:41.004Z,29.10
2023-05-25T10:25:14.529Z,29.20
2023-05-25T10:27:44.640Z,29.20
2023-05-25T10:30:13.986Z,29.20
2023-05-25T10:32:42.672Z,29.20
2023-05-25T10:35:10.398Z,29.60
2023-05-25T10:37:38.655Z,29.80
2023-05-25T10:40:08.611Z,29.60
2023-05-25T10:42:37.463Z,29.30
2023-05-25T10:45:09.191Z,29.30
2023-05-25T10:47:44.063Z,29.50
2023-05-25T10:50:37.439Z,30.00
2023-05-25T10:53:07.769Z,30.40
2023-05-25T10:55:44.887Z,30.40
2023-05-25T10:58:14.438Z,30.50
2023-05-25T11:00:42.115Z,30.30
2023-05-25T11:03:10.157Z,30.10
2023-05-25T11:05:40.942Z,30.00
2023-05-25T11:08:10.110Z,30.00
2023-05-25T11:10:43.515Z,30.00
2023-05-25T11:13:41.193Z,29.60
2023-05-25T11:16:27.497Z,30.10
2023-05-25T11:18:57.960Z,30.30
2023-05-25T11:21:27.621Z,30.30
2023-05-25T11:23:54.745Z,30.60
2023-05-25T11:26:22.941Z,30.60
2023-05-25T11:28:51.906Z,30.50
2023-05-25T11:31:40.617Z,30.20
2023-05-25T11:34:12.279Z,30.10
2023-05-25T11:36:39.671Z,30.20
2023-05-25T11:39:16.977Z,30.20
2023-05-25T11:41:51.429Z,30.20
2023-05-25T11:44:28.289Z,29.80
2023-05-25T11:47:01.720Z,29.50
2023-05-25T11:49:29.019Z,28.60
2023-05-25T11:51:57.587Z,27.80
2023-05-25T11:54:26.504Z,27.60
2023-05-25T11:56:59.331Z,27.70
2023-05-25T11:59:29.768Z,27.40
2023-05-25T12:02:00.261Z,26.90
2023-05-25T12:04:27.854Z,26.90
2023-05-25T12:07:05.932Z,26.50
2023-05-25T12:09:32.950Z,26.30
2023-05-25T12:12:00.778Z,26.40
2023-05-25T12:14:27.764Z,26.40
2023-05-25T12:16:56.007Z,25.50
2023-05-25T12:19:23.144Z,25.30
2023-05-25T12:21:51.995Z,25.10
2023-05-25T12:24:19.347Z,24.90
2023-05-25T12:26:59.723Z,25.20
2023-05-25T12:29:26.702Z,25.20
2023-05-25T12:31:53.672Z,25.10
2023-05-25T12:34:21.543Z,25.00
2023-05-25T12:36:51.673Z,24.50
2023-05-25T12:39:24.660Z,24.40
2023-05-25T12:41:54.831Z,24.70
2023-05-25T12:44:35.810Z,24.90
2023-05-25T12:47:16.857Z,25.10
2023-05-25T12:49:45.414Z,25.40
2023-05-25T12:52:35.664Z,25.60
2023-05-25T12:55:21.011Z,25.70
2023-05-25T12:57:52.477Z,26.10
2023-05-25T13:00:21.256Z,26.60
2023-05-25T13:02:50.570Z,26.60
2023-05-25T13:05:22.506Z,26.60
2023-05-25T13:07:49.931Z,26.70
2023-05-25T13:10:17.804Z,26.50
2023-05-25T13:12:46.358Z,26.30
2023-05-25T13:15:15.679Z,26.30
2023-05-25T13:17:43.738Z,26.40
2023-05-25T13:20:18.580Z,26.40
2023-05-25T13:22:46.647Z,26.50
2023-05-25T13:25:17.354Z,26.50
2023-05-25T13:27:49.495Z,26.50
2023-05-25T13:30:17.318Z,26.40
2023-05-25T13:32:44.469Z,26.50
2023-05-25T13:35:18.609Z,26.50
2023-05-25T13:37:48.427Z,27.00
2023-05-25T13:40:15.389Z,27.40
2023-05-25T13:42:42.188Z,27.20
2023-05-25T13:45:09.757Z,27.50
2023-05-25T13:47:37.012Z,27.40
2023-05-25T13:50:04.643Z,27.70
2023-05-25T13:52:31.725Z,27.90
2023-05-25T13:54:58.577Z,27.80
2023-05-25T13:57:25.411Z,27.20
2023-05-25T13:59:52.206Z,27.00
2023-05-25T14:02:19.183Z,27.00
2023-05-25T14:04:46.140Z,26.80
2023-05-25T14:07:13.140Z,26.90
2023-05-25T14:09:39.978Z,27.00
2023-05-25T14:12:07.024Z,27.00
2023-05-25T14:14:33.951Z,27.00
2023-05-25T14:17:01.406Z,27.30
2023-05-25T14:19:28.688Z,27.40
2023-05-25T14:22:11.790Z,27.10
2023-05-25T14:24:40.624Z,27.10
2023-05-25T14:27:07.548Z,27.20
2023-05-25T14:29:34.683Z,26.70
2023-05-25T14:32:01.862Z,25.80
2023-05-25T14:34:29.573Z,25.30
2023-05-25T14:36:56.513Z,25.10
2023-05-25T14:39:23.418Z,24.90
2023-05-25T14:41:50.341Z,24.70
2023-05-25T14:44:17.190Z,24.60
2023-05-25T14:46:44.040Z,24.40
2023-05-25T14:49:10.945Z,24.10
2023-05-25T14:51:38.124Z,24.10
2023-05-25T14:54:07.149Z,24.00
2023-05-25T14:56:34.441Z,24.00
2023-05-25T14:59:01.341Z,23.80
2023-05-25T15:01:29.519Z,23.90
2023-05-25T15:03:57.046Z,23.90
2023-05-25T15:06:24.310Z,23.90
2023-05-25T15:08:51.448Z,24.00
2023-05-25T15:11:18.604Z,24.10
2023-05-25T15:13:46.017Z,24.20
2023-05-25T15:16:13.891Z,24.30
2023-05-25T15:18:40.791Z,24.30
2023-05-25T15:21:07.729Z,24.00
2023-05-25T15:23:34.730Z,23.80
2023-05-25T15:26:07.616Z,23.60
2023-05-25T15:28:34.784Z,23.80
2023-05-25T15:31:03.143Z,23.80
2023-05-25T15:33:49.559Z,23.90
2023-05-25T15:36:20.482Z,24.00
2023-05-25T15:38:49.300Z,24.00
2023-05-25T15:41:17.289Z,24.00
2023-05-25T15:43:52.692Z,24.00
2023-05-25T15:46:19.809Z,23.80
2023-05-25T15:48:46.795Z,23.60
2023-05-25T15:51:13.642Z,23.60
2023-05-25T15:53:40.499Z,23.60
2023-05-25T15:56:07.965Z,23.60
2023-05-25T15:58:34.834Z,23.50
2023-05-25T16:01:01.891Z,23.60
2023-05-25T16:03:29.488Z,23.60
2023-05-25T16:05:57.035Z,23.80
2023-05-25T16:08:23.981Z,23.80
2023-05-25T16:10:51.001Z,23.60
2023-05-25T16:13:17.836Z,23.60
2023-05-25T16:15:45.033Z,23.50
2023-05-25T16:18:12.134Z,23.50
2023-05-25T16:20:38.985Z,23.50
2023-05-25T16:23:06.468Z,23.50
2023-05-25T16:25:33.419Z,23.60
2023-05-25T16:28:00.286Z,23.60
2023-05-25T16:30:27.157Z,23.60
2023-05-25T16:32:54.118Z,23.60
2023-05-25T16:35:21.654Z,23.50
2023-05-25T16:37:48.542Z,23.50
2023-05-25T16:40:15.704Z,23.50
2023-05-25T16:42:42.833Z,23.60
2023-05-25T16:45:10.036Z,23.70
2023-05-25T16:47:36.866Z,23.60
2023-05-25T16:50:03.943Z,23.60
2023-05-25T16:52:30.814Z,23.60
2023-05-25T16:54:59.234Z,23.60
2023-05-25T16:57:26.205Z,23.60
2023-05-25T16:59:53.807Z,23.60
2023-05-25T17:02:20.852Z,23.50
2023-05-25T17:04:47.732Z,23.60
2023-05-25T17:07:14.614Z,23.60
2023-05-25T17:09:41.399Z,23.60
2023-05-25T17:12:08.525Z,23.70
2023-05-25T17:14:35.371Z,23.80
2023-05-25T17:17:02.200Z,23.80
2023-05-25T17:19:29.144Z,23.80
2023-05-25T17:21:56.417Z,23.80
2023-05-25T17:24:23.256Z,23.60
2023-05-25T17:26:51.542Z,23.50
2023-05-25T17:29:18.403Z,23.50
2023-05-25T17:31:47.040Z,23.30
2023-05-25T17:34:15.601Z,23.30
2023-05-25T17:36:43.003Z,23.30
2023-05-25T17:39:09.902Z,23.20
2023-05-25T17:41:36.719Z,23.30
2023-05-25T17:44:03.568Z,23.30
2023-05-25T17:46:30.540Z,23.30
2023-05-25T17:48:57.523Z,23.30
2023-05-25T17:51:24.333Z,23.40
2023-05-25T17:53:51.150Z,23.30
2023-05-25T17:56:17.958Z,23.20
2023-05-25T17:58:47.887Z,23.20
2023-05-25T18:01:15.442Z,23.20
2023-05-25T18:03:42.667Z,23.10
2023-05-25T18:06:10.203Z,23.10
2023-05-25T18:08:37.125Z,23.10
2023-05-25T18:11:04.150Z,23.10
2023-05-25T18:13:31.009Z,23.10
2023-05-25T18:15:57.823Z,23.00
2023-05-25T18:18:25.005Z,23.00
2023-05-25T18:20:51.881Z,23.00
2023-05-25T18:23:18.791Z,23.00
2023-05-25T18:25:46.125Z,22.90
2023-05-25T18:28:15.084Z,22.90
2023-05-25T18:30:45.606Z,22.90
2023-05-25T18:33:12.770Z,22.90
2023-05-25T18:35:40.069Z,22.80
2023-05-25T18:38:07.025Z,22.80
2023-05-25T18:40:33.934Z,22.80
2023-05-25T18:43:00.940Z,22.70
2023-05-25T18:45:27.871Z,22.60
2023-05-25T18:47:54.783Z,22.60
2023-05-25T18:50:21.744Z,22.50
2023-05-25T18:52:51.194Z,22.40
2023-05-25T18:55:18.903Z,22.40
2023-05-25T18:57:45.840Z,22.40
2023-05-25T19:00:13.363Z,22.40
2023-05-25T19:02:40.828Z,22.40
2023-05-25T19:05:08.524Z,22.40
2023-05-25T19:07:44.191Z,22.40
2023-05-25T19:10:18.077Z,22.40
2023-05-25T19:12:44.909Z,22.40
2023-05-25T19:15:11.857Z,22.40
2023-05-25T19:17:38.710Z,22.30
2023-05-25T19:20:06.323Z,22.40
2023-05-25T19:22:33.312Z,22.40
2023-05-25T19:25:01.314Z,22.30
2023-05-25T19:27:28.329Z,22.30
2023-05-25T19:29:55.177Z,22.30
2023-05-25T19:32:22.065Z,22.20
2023-05-25T19:34:48.924Z,22.30
2023-05-25T19:37:16.018Z,22.30
2023-05-25T19:39:42.915Z,22.30
2023-05-25T19:42:09.770Z,22.30
2023-05-25T19:44:36.669Z,22.20
2023-05-25T19:47:03.519Z,22.20
2023-05-25T19:49:30.799Z,22.10
2023-05-25T19:51:57.711Z,22.10
2023-05-25T19:54:24.538Z,22.20
2023-05-25T19:56:52.452Z,22.20
2023-05-25T19:59:21.214Z,22.30
2023-05-25T20:01:48.235Z,22.10
2023-05-25T20:04:15.215Z,22.00
2023-05-25T20:06:42.142Z,22.00
2023-05-25T20:09:12.486Z,22.00
2023-05-25T20:11:39.510Z,21.90
2023-05-25T20:14:07.992Z,21.90
2023-05-25T20:16:35.007Z,22.00
2023-05-25T20:19:02.368Z,21.90
2023-05-25T20:21:30.592Z,21.90
2023-05-25T20:23:57.821Z,21.80
2023-05-25T20:26:24.713Z,21.80
2023-05-25T20:28:51.506Z,21.70
2023-05-25T20:31:18.608Z,21.80
2023-05-25T20:33:45.626Z,21.90
2023-05-25T20:36:13.251Z,22.00
2023-05-25T20:38:45.400Z,22.10
2023-05-25T20:41:12.386Z,22.00
2023-05-25T20:43:39.555Z,21.90
2023-05-25T20:46:09.562Z,21.80
2023-05-25T20:48:38.603Z,21.70
2023-05-25T20:51:05.939Z,21.60
2023-05-25T20:53:32.754Z,21.60
2023-05-25T20:56:01.505Z,21.80
2023-05-25T20:58:28.373Z,21.70
2023-05-25T21:00:55.479Z,21.60
2023-05-25T21:03:22.425Z,21.60
2023-05-25T21:05:49.353Z,21.60
2023-05-25T21:08:16.349Z,21.50
2023-05-25T21:10:43.265Z,21.50
2023-05-25T21:13:10.111Z,21.50
2023-05-25T21:15:36.928Z,21.50
2023-05-25T21:18:05.591Z,21.40
2023-05-25T21:20:33.171Z,21.40
2023-05-25T21:23:00.706Z,21.30
2023-05-25T21:25:27.527Z,21.20
2023-05-25T21:27:56.830Z,21.20
2023-05-25T21:30:24.507Z,21.20
2023-05-25T21:32:51.730Z,21.20
2023-05-25T21:35:18.734Z,21.20
2023-05-25T21:37:45.996Z,21.20
2023-05-25T21:40:13.060Z,21.10
2023-05-25T21:42:39.894Z,21.10
2023-05-25T21:45:07.309Z,21.10
2023-05-25T21:47:34.137Z,21.10
2023-05-25T21:50:01.016Z,21.10
2023-05-25T21:52:27.840Z,21.10
2023-05-25T21:54:54.724Z,21.00
2023-05-25T21:57:21.698Z,20.90
2023-05-25T21:59:48.520Z,21.00
2023-05-25T22:02:15.476Z,20.90
2023-05-25T22:04:42.376Z,20.90
2023-05-25T22:07:09.175Z,20.80
2023-05-25T22:09:36.069Z,20.70
2023-05-25T22:12:03.024Z,20.70
2023-05-25T22:14:29.984Z,20.70
2023-05-25T22:16:56.892Z,20.70
2023-05-25T22:19:23.718Z,20.60
2023-05-25T22:21:50.537Z,20.70
2023-05-25T22:24:17.438Z,20.60
2023-05-25T22:26:44.421Z,20.70
2023-05-25T22:29:12.006Z,20.70
2023-05-25T22:31:38.919Z,20.60
2023-05-25T22:34:05.866Z,20.60
2023-05-25T22:36:32.738Z,20.50
2023-05-25T22:38:59.628Z,20.50
2023-05-25T22:41:26.600Z,20.50
2023-05-25T22:43:53.457Z,20.40
2023-05-25T22:46:21.009Z,20.50
2023-05-25T22:48:47.914Z,20.30
2023-05-25T22:51:14.844Z,20.30
2023-05-25T22:53:41.707Z,20.30
2023-05-25T22:56:08.647Z,20.20
2023-05-25T22:58:35.470Z,20.10
2023-05-25T23:01:02.278Z,20.10
2023-05-25T23:03:29.981Z,20.20
2023-05-25T23:05:57.039Z,20.20
2023-05-25T23:08:23.936Z,20.20
2023-05-25T23:10:50.872Z,20.20
2023-05-25T23:13:19.197Z,20.10
2023-05-25T23:15:47.641Z,20.10
2023-05-25T23:18:14.582Z,20.10
2023-05-25T23:20:41.860Z,20.00
2023-05-25T23:23:08.908Z,20.00
2023-05-25T23:25:36.525Z,20.00
2023-05-25T23:28:03.376Z,20.00
2023-05-25T23:30:30.247Z,20.00
2023-05-25T23:32:57.148Z,20.10
2023-05-25T23:35:24.150Z,20.10
2023-05-25T23:37:52.064Z,20.10
2023-05-25T23:40:19.110Z,20.10
2023-05-25T23:42:46.096Z,20.00
2023-05-25T23:45:13.705Z,20.10
2023-05-25T23:47:40.838Z,20.10
2023-05-25T23:50:08.189Z,20.10
2023-05-25T23:52:35.212Z,20.00
2023-05-25T23:55:02.429Z,20.00
2023-05-25T23:57:29.419Z,20.00
2023-05-25T23:59:56.278Z,20.00
